sensor_id;sensor_type;location;lat;lon;timestamp;pressure;altitude;pressure_sealevel;temperature;humidity
23339;BME280;11841;49.368;20.962;2023-04-12T00:00:22;95049.88;;;6.56;90.18
23339;BME280;11841;49.368;20.962;2023-04-12T00:03:08;95048.59;;;6.65;90.09
23339;BME280;11841;49.368;20.962;2023-04-12T00:05:54;95049.00;;;6.75;90.17
23339;BME280;11841;49.368;20.962;2023-04-12T00:08:39;95045.50;;;6.81;89.46
23339;BME280;11841;49.368;20.962;2023-04-12T00:11:27;95048.75;;;6.83;89.49
23339;BME280;11841;49.368;20.962;2023-04-12T00:14:12;95039.47;;;6.74;89.85
23339;BME280;11841;49.368;20.962;2023-04-12T00:16:57;95041.91;;;6.69;90.13
23339;BME280;11841;49.368;20.962;2023-04-12T00:19:42;95038.31;;;6.57;90.60
23339;BME280;11841;49.368;20.962;2023-04-12T00:22:28;95023.72;;;6.61;90.59
23339;BME280;11841;49.368;20.962;2023-04-12T00:25:14;95031.41;;;6.63;91.55
23339;BME280;11841;49.368;20.962;2023-04-12T00:27:59;95026.97;;;6.63;91.57
23339;BME280;11841;49.368;20.962;2023-04-12T00:30:44;95024.72;;;6.67;92.32
23339;BME280;11841;49.368;20.962;2023-04-12T00:33:30;95015.97;;;6.73;91.90
23339;BME280;11841;49.368;20.962;2023-04-12T00:36:15;95013.97;;;6.68;92.71
23339;BME280;11841;49.368;20.962;2023-04-12T00:39:01;95020.72;;;6.51;92.27
23339;BME280;11841;49.368;20.962;2023-04-12T00:41:46;95019.47;;;6.54;92.99
23339;BME280;11841;49.368;20.962;2023-04-12T00:44:32;95011.16;;;6.63;92.77
23339;BME280;11841;49.368;20.962;2023-04-12T00:47:18;95007.66;;;6.69;92.49
23339;BME280;11841;49.368;20.962;2023-04-12T00:50:03;95007.03;;;6.74;92.79
23339;BME280;11841;49.368;20.962;2023-04-12T00:52:50;95007.63;;;6.76;92.73
23339;BME280;11841;49.368;20.962;2023-04-12T00:55:36;95003.59;;;6.73;92.39
23339;BME280;11841;49.368;20.962;2023-04-12T00:58:22;94999.56;;;6.71;92.80
23339;BME280;11841;49.368;20.962;2023-04-12T01:01:08;95000.38;;;6.71;92.21
23339;BME280;11841;49.368;20.962;2023-04-12T01:03:55;94997.56;;;6.66;93.15
23339;BME280;11841;49.368;20.962;2023-04-12T01:07:13;94989.06;;;6.64;93.70
23339;BME280;11841;49.368;20.962;2023-04-12T01:10:09;94985.38;;;6.65;93.66
23339;BME280;11841;49.368;20.962;2023-04-12T01:13:38;94982.56;;;6.60;94.13
23339;BME280;11841;49.368;20.962;2023-04-12T01:16:39;94986.69;;;6.50;94.49
23339;BME280;11841;49.368;20.962;2023-04-12T01:19:47;94987.72;;;6.42;95.74
23339;BME280;11841;49.368;20.962;2023-04-12T01:28:32;94984.56;;;6.21;96.50
23339;BME280;11841;49.368;20.962;2023-04-12T01:31:19;94981.09;;;6.27;96.75
23339;BME280;11841;49.368;20.962;2023-04-12T01:34:07;94984.00;;;6.12;97.66
23339;BME280;11841;49.368;20.962;2023-04-12T01:36:54;94981.94;;;6.07;98.32
23339;BME280;11841;49.368;20.962;2023-04-12T01:39:41;94993.66;;;6.18;97.78
23339;BME280;11841;49.368;20.962;2023-04-12T01:42:26;94983.72;;;6.27;97.34
23339;BME280;11841;49.368;20.962;2023-04-12T01:45:12;94980.31;;;6.20;97.55
23339;BME280;11841;49.368;20.962;2023-04-12T01:47:57;94983.94;;;6.25;97.54
23339;BME280;11841;49.368;20.962;2023-04-12T01:51:05;94979.88;;;6.29;97.19
23339;BME280;11841;49.368;20.962;2023-04-12T01:54:22;94982.69;;;6.34;97.51
23339;BME280;11841;49.368;20.962;2023-04-12T01:57:08;94986.50;;;6.38;97.30
23339;BME280;11841;49.368;20.962;2023-04-12T01:59:55;94978.22;;;6.41;96.84
23339;BME280;11841;49.368;20.962;2023-04-12T02:02:42;94984.13;;;6.30;96.89
23339;BME280;11841;49.368;20.962;2023-04-12T02:05:29;94976.47;;;6.22;97.53
23339;BME280;11841;49.368;20.962;2023-04-12T02:08:15;94985.56;;;6.26;96.82
23339;BME280;11841;49.368;20.962;2023-04-12T02:11:07;94983.16;;;6.18;96.17
23339;BME280;11841;49.368;20.962;2023-04-12T02:13:53;94983.16;;;6.18;95.80
23339;BME280;11841;49.368;20.962;2023-04-12T02:16:39;94985.41;;;6.08;96.55
23339;BME280;11841;49.368;20.962;2023-04-12T02:19:26;94973.84;;;6.16;95.52
23339;BME280;11841;49.368;20.962;2023-04-12T02:22:12;94974.81;;;6.21;95.11
23339;BME280;11841;49.368;20.962;2023-04-12T02:24:57;94974.66;;;6.23;94.84
23339;BME280;11841;49.368;20.962;2023-04-12T02:27:44;94972.63;;;6.18;94.98
23339;BME280;11841;49.368;20.962;2023-04-12T02:30:30;94972.41;;;6.20;95.19
23339;BME280;11841;49.368;20.962;2023-04-12T02:33:15;94971.81;;;6.24;95.33
23339;BME280;11841;49.368;20.962;2023-04-12T02:36:00;94967.34;;;6.18;95.20
23339;BME280;11841;49.368;20.962;2023-04-12T02:38:46;94978.72;;;6.12;95.25
23339;BME280;11841;49.368;20.962;2023-04-12T02:41:35;94977.88;;;6.18;94.97
23339;BME280;11841;49.368;20.962;2023-04-12T02:44:20;94987.19;;;6.21;95.46
23339;BME280;11841;49.368;20.962;2023-04-12T02:47:05;94973.84;;;6.22;95.71
23339;BME280;11841;49.368;20.962;2023-04-12T02:49:50;94983.13;;;6.25;96.02
23339;BME280;11841;49.368;20.962;2023-04-12T02:52:36;94994.06;;;6.22;96.25
23339;BME280;11841;49.368;20.962;2023-04-12T02:55:21;95007.03;;;6.23;96.56
23339;BME280;11841;49.368;20.962;2023-04-12T02:58:07;95010.72;;;6.09;96.65
23339;BME280;11841;49.368;20.962;2023-04-12T03:00:52;95012.72;;;6.13;96.34
23339;BME280;11841;49.368;20.962;2023-04-12T03:03:37;95000.56;;;6.19;96.28
23339;BME280;11841;49.368;20.962;2023-04-12T03:06:23;95014.13;;;6.16;94.70
23339;BME280;11841;49.368;20.962;2023-04-12T03:09:08;95015.16;;;6.15;94.74
23339;BME280;11841;49.368;20.962;2023-04-12T03:11:53;95010.50;;;6.10;94.36
23339;BME280;11841;49.368;20.962;2023-04-12T03:14:39;95009.88;;;6.15;94.52
23339;BME280;11841;49.368;20.962;2023-04-12T03:17:24;95018.78;;;6.21;94.05
23339;BME280;11841;49.368;20.962;2023-04-12T03:20:09;95014.31;;;6.21;93.83
23339;BME280;11841;49.368;20.962;2023-04-12T03:22:55;95013.91;;;6.24;93.34
23339;BME280;11841;49.368;20.962;2023-04-12T03:25:41;95018.97;;;6.26;93.36
23339;BME280;11841;49.368;20.962;2023-04-12T03:28:26;95028.50;;;6.20;93.22
23339;BME280;11841;49.368;20.962;2023-04-12T03:31:11;95029.13;;;6.16;93.54
23339;BME280;11841;49.368;20.962;2023-04-12T03:33:57;95023.66;;;6.17;94.05
23339;BME280;11841;49.368;20.962;2023-04-12T03:36:43;95027.47;;;6.21;93.71
23339;BME280;11841;49.368;20.962;2023-04-12T03:39:28;95021.41;;;6.21;93.68
23339;BME280;11841;49.368;20.962;2023-04-12T03:42:14;95021.03;;;6.17;93.29
23339;BME280;11841;49.368;20.962;2023-04-12T03:45:16;95012.31;;;6.17;93.63
23339;BME280;11841;49.368;20.962;2023-04-12T03:48:01;95018.81;;;6.14;93.81
23339;BME280;11841;49.368;20.962;2023-04-12T03:50:46;95014.75;;;6.05;93.91
23339;BME280;11841;49.368;20.962;2023-04-12T03:53:33;95003.22;;;6.06;94.15
23339;BME280;11841;49.368;20.962;2023-04-12T03:56:18;95012.56;;;6.02;94.15
23339;BME280;11841;49.368;20.962;2023-04-12T03:59:05;95012.94;;;5.99;93.33
23339;BME280;11841;49.368;20.962;2023-04-12T04:01:54;95011.94;;;6.00;93.16
23339;BME280;11841;49.368;20.962;2023-04-12T04:04:40;95004.84;;;5.94;92.71
23339;BME280;11841;49.368;20.962;2023-04-12T04:07:26;95008.31;;;5.88;92.42
23339;BME280;11841;49.368;20.962;2023-04-12T04:10:12;95011.13;;;5.93;93.09
23339;BME280;11841;49.368;20.962;2023-04-12T04:12:57;95002.63;;;5.97;93.54
23339;BME280;11841;49.368;20.962;2023-04-12T04:15:42;95006.47;;;6.01;93.37
23339;BME280;11841;49.368;20.962;2023-04-12T04:18:28;95003.81;;;6.08;92.98
23339;BME280;11841;49.368;20.962;2023-04-12T04:21:13;95011.94;;;6.00;93.32
23339;BME280;11841;49.368;20.962;2023-04-12T04:23:59;95003.84;;;5.95;93.66
23339;BME280;11841;49.368;20.962;2023-04-12T04:26:47;95007.47;;;5.94;93.78
23339;BME280;11841;49.368;20.962;2023-04-12T04:29:34;95008.31;;;5.94;93.58
23339;BME280;11841;49.368;20.962;2023-04-12T04:32:20;95013.56;;;6.01;93.70
23339;BME280;11841;49.368;20.962;2023-04-12T04:35:06;95013.97;;;5.91;93.83
23339;BME280;11841;49.368;20.962;2023-04-12T04:37:52;95019.44;;;5.96;93.91
23339;BME280;11841;49.368;20.962;2023-04-12T04:40:37;95030.56;;;5.98;93.93
23339;BME280;11841;49.368;20.962;2023-04-12T04:43:23;95029.94;;;6.03;93.73
23339;BME280;11841;49.368;20.962;2023-04-12T04:46:08;95039.66;;;5.96;93.34
23339;BME280;11841;49.368;20.962;2023-04-12T04:48:55;95035.00;;;5.98;93.38
23339;BME280;11841;49.368;20.962;2023-04-12T04:51:40;95030.19;;;5.88;92.98
23339;BME280;11841;49.368;20.962;2023-04-12T04:54:25;95036.63;;;5.92;93.18
23339;BME280;11841;49.368;20.962;2023-04-12T04:57:11;95039.66;;;5.96;93.57
23339;BME280;11841;49.368;20.962;2023-04-12T04:59:56;95024.88;;;6.01;93.66
23339;BME280;11841;49.368;20.962;2023-04-12T05:02:42;95034.00;;;6.12;93.33
23339;BME280;11841;49.368;20.962;2023-04-12T05:05:28;95032.97;;;6.13;92.83
23339;BME280;11841;49.368;20.962;2023-04-12T05:08:14;95033.38;;;6.10;92.33
23339;BME280;11841;49.368;20.962;2023-04-12T05:10:59;95031.34;;;6.12;92.62
23339;BME280;11841;49.368;20.962;2023-04-12T05:13:45;95033.59;;;6.02;93.19
23339;BME280;11841;49.368;20.962;2023-04-12T05:16:30;95038.06;;;6.01;93.50
23339;BME280;11841;49.368;20.962;2023-04-12T05:19:15;95039.47;;;6.10;93.22
23339;BME280;11841;49.368;20.962;2023-04-12T05:22:01;95043.06;;;6.16;93.60
23339;BME280;11841;49.368;20.962;2023-04-12T05:24:47;95041.66;;;6.20;93.63
23339;BME280;11841;49.368;20.962;2023-04-12T05:27:32;95038.59;;;6.23;93.27
23339;BME280;11841;49.368;20.962;2023-04-12T05:30:18;95040.44;;;6.29;92.75
23339;BME280;11841;49.368;20.962;2023-04-12T05:33:03;95041.03;;;6.31;92.92
23339;BME280;11841;49.368;20.962;2023-04-12T05:35:48;95043.06;;;6.29;92.48
23339;BME280;11841;49.368;20.962;2023-04-12T05:38:34;95043.47;;;6.20;92.93
23339;BME280;11841;49.368;20.962;2023-04-12T05:41:19;95052.38;;;6.25;92.74
23339;BME280;11841;49.368;20.962;2023-04-12T05:44:05;95051.75;;;6.30;93.27
23339;BME280;11841;49.368;20.962;2023-04-12T05:46:50;95045.50;;;6.24;93.23
23339;BME280;11841;49.368;20.962;2023-04-12T05:49:35;95042.69;;;6.13;93.39
23339;BME280;11841;49.368;20.962;2023-04-12T05:52:20;95061.09;;;6.19;93.61
23339;BME280;11841;49.368;20.962;2023-04-12T05:55:05;95059.06;;;6.14;93.38
23339;BME280;11841;49.368;20.962;2023-04-12T05:57:51;95058.47;;;6.06;93.58
23339;BME280;11841;49.368;20.962;2023-04-12T06:00:38;95050.19;;;5.96;94.63
23339;BME280;11841;49.368;20.962;2023-04-12T06:03:25;95052.03;;;5.82;95.06
23339;BME280;11841;49.368;20.962;2023-04-12T06:06:14;95043.13;;;5.77;94.79
23339;BME280;11841;49.368;20.962;2023-04-12T06:08:59;95052.00;;;5.76;95.51
23339;BME280;11841;49.368;20.962;2023-04-12T06:11:45;95048.38;;;5.77;95.47
23339;BME280;11841;49.368;20.962;2023-04-12T06:14:30;95041.88;;;5.79;94.89
23339;BME280;11841;49.368;20.962;2023-04-12T06:17:15;95055.25;;;5.78;95.32
23339;BME280;11841;49.368;20.962;2023-04-12T06:20:01;95033.59;;;5.69;95.09
23339;BME280;11841;49.368;20.962;2023-04-12T06:22:49;95045.94;;;5.69;94.99
23339;BME280;11841;49.368;20.962;2023-04-12T06:25:34;95054.44;;;5.71;95.16
23339;BME280;11841;49.368;20.962;2023-04-12T06:28:19;95045.91;;;5.75;94.74
23339;BME280;11841;49.368;20.962;2023-04-12T06:31:04;95038.47;;;5.85;93.67
23339;BME280;11841;49.368;20.962;2023-04-12T06:33:51;95042.31;;;5.83;93.36
23339;BME280;11841;49.368;20.962;2023-04-12T06:36:36;95041.91;;;5.86;93.75
23339;BME280;11841;49.368;20.962;2023-04-12T06:39:24;95042.72;;;5.93;93.63
23339;BME280;11841;49.368;20.962;2023-04-12T06:42:09;95038.06;;;5.95;93.93
23339;BME280;11841;49.368;20.962;2023-04-12T06:44:58;95047.16;;;5.92;93.58
23339;BME280;11841;49.368;20.962;2023-04-12T06:47:43;95039.66;;;5.96;93.54
23339;BME280;11841;49.368;20.962;2023-04-12T06:50:28;95052.81;;;6.02;93.57
23339;BME280;11841;49.368;20.962;2023-04-12T06:53:13;95060.91;;;6.07;93.41
23339;BME280;11841;49.368;20.962;2023-04-12T06:56:02;95066.75;;;6.16;93.66
23339;BME280;11841;49.368;20.962;2023-04-12T06:58:48;95069.00;;;6.06;93.12
23339;BME280;11841;49.368;20.962;2023-04-12T07:01:33;95067.81;;;6.02;93.38
23339;BME280;11841;49.368;20.962;2023-04-12T07:04:18;95071.25;;;6.09;93.57
23339;BME280;11841;49.368;20.962;2023-04-12T07:07:05;95063.53;;;6.21;93.08
23339;BME280;11841;49.368;20.962;2023-04-12T07:09:50;95060.28;;;6.25;92.91
23339;BME280;11841;49.368;20.962;2023-04-12T07:12:36;95075.63;;;6.35;92.80
23339;BME280;11841;49.368;20.962;2023-04-12T07:15:21;95071.38;;;6.34;92.21
23339;BME280;11841;49.368;20.962;2023-04-12T07:18:07;95083.53;;;6.28;92.55
23339;BME280;11841;49.368;20.962;2023-04-12T07:20:53;95081.13;;;6.27;92.10
23339;BME280;11841;49.368;20.962;2023-04-12T07:23:39;95072.63;;;6.18;92.48
23339;BME280;11841;49.368;20.962;2023-04-12T07:26:25;95073.44;;;6.19;92.76
23339;BME280;11841;49.368;20.962;2023-04-12T07:29:11;95070.59;;;6.20;93.88
23339;BME280;11841;49.368;20.962;2023-04-12T07:31:58;95066.56;;;6.24;92.94
23339;BME280;11841;49.368;20.962;2023-04-12T07:34:43;95064.53;;;6.33;93.26
23339;BME280;11841;49.368;20.962;2023-04-12T07:37:29;95073.00;;;6.41;92.68
23339;BME280;11841;49.368;20.962;2023-04-12T07:40:14;95072.78;;;6.49;92.78
23339;BME280;11841;49.368;20.962;2023-04-12T07:43:00;95067.28;;;6.51;92.19
23339;BME280;11841;49.368;20.962;2023-04-12T07:45:45;95064.28;;;6.47;92.81
23339;BME280;11841;49.368;20.962;2023-04-12T07:48:30;95058.22;;;6.40;91.58
23339;BME280;11841;49.368;20.962;2023-04-12T07:51:16;95056.78;;;6.44;91.79
23339;BME280;11841;49.368;20.962;2023-04-12T07:54:01;95054.34;;;6.49;91.83
23339;BME280;11841;49.368;20.962;2023-04-12T07:57:01;95055.56;;;6.53;89.30
23339;BME280;11841;49.368;20.962;2023-04-12T07:59:47;95057.41;;;6.46;88.67
23339;BME280;11841;49.368;20.962;2023-04-12T08:02:33;95059.41;;;6.51;89.39
23339;BME280;11841;49.368;20.962;2023-04-12T08:11:18;95055.94;;;6.63;88.59
23339;BME280;11841;49.368;20.962;2023-04-12T08:14:03;95054.25;;;6.69;89.72
23339;BME280;11841;49.368;20.962;2023-04-12T08:16:48;95056.91;;;6.75;89.72
23339;BME280;11841;49.368;20.962;2023-04-12T08:19:34;95063.53;;;6.84;91.43
23339;BME280;11841;49.368;20.962;2023-04-12T08:22:19;95056.88;;;6.82;88.63
23339;BME280;11841;49.368;20.962;2023-04-12T08:25:05;95060.72;;;6.79;87.56
23339;BME280;11841;49.368;20.962;2023-04-12T08:27:50;95067.63;;;6.80;88.08
23339;BME280;11841;49.368;20.962;2023-04-12T08:30:36;95067.63;;;6.74;86.32
23339;BME280;11841;49.368;20.962;2023-04-12T08:33:21;95070.47;;;6.72;87.20
23339;BME280;11841;49.368;20.962;2023-04-12T08:36:06;95067.22;;;6.70;86.90
23339;BME280;11841;49.368;20.962;2023-04-12T08:38:52;95070.88;;;6.69;87.60
23339;BME280;11841;49.368;20.962;2023-04-12T08:41:40;95070.69;;;6.64;86.83
23339;BME280;11841;49.368;20.962;2023-04-12T08:44:34;95071.31;;;6.66;86.32
23339;BME280;11841;49.368;20.962;2023-04-12T08:47:22;95066.66;;;6.68;86.07
23339;BME280;11841;49.368;20.962;2023-04-12T08:50:10;95060.53;;;6.74;86.98
23339;BME280;11841;49.368;20.962;2023-04-12T08:52:58;95065.16;;;6.79;87.11
23339;BME280;11841;49.368;20.962;2023-04-12T08:55:44;95053.66;;;6.73;86.32
23339;BME280;11841;49.368;20.962;2023-04-12T08:58:29;95060.75;;;6.73;87.15
23339;BME280;11841;49.368;20.962;2023-04-12T09:01:16;95067.00;;;6.78;87.03
23339;BME280;11841;49.368;20.962;2023-04-12T09:04:06;95054.22;;;6.82;86.34
23339;BME280;11841;49.368;20.962;2023-04-12T09:06:52;95069.63;;;6.85;86.91
23339;BME280;11841;49.368;20.962;2023-04-12T09:09:44;95060.06;;;6.90;87.64
23339;BME280;11841;49.368;20.962;2023-04-12T09:12:30;95073.63;;;6.87;85.69
23339;BME280;11841;49.368;20.962;2023-04-12T09:15:15;95062.09;;;6.88;86.47
23339;BME280;11841;49.368;20.962;2023-04-12T09:18:07;95057.63;;;6.95;86.34
23339;BME280;11841;49.368;20.962;2023-04-12T09:21:06;95048.91;;;6.95;85.66
23339;BME280;11841;49.368;20.962;2023-04-12T09:24:09;95050.28;;;6.97;86.04
23339;BME280;11841;49.368;20.962;2023-04-12T09:27:05;95051.28;;;7.03;85.31
23339;BME280;11841;49.368;20.962;2023-04-12T09:30:07;95044.38;;;7.08;85.30
23339;BME280;11841;49.368;20.962;2023-04-12T09:32:52;95050.59;;;7.20;85.93
23339;BME280;11841;49.368;20.962;2023-04-12T09:35:39;95046.31;;;7.19;86.44
23339;BME280;11841;49.368;20.962;2023-04-12T09:38:28;95041.81;;;7.26;86.76
23339;BME280;11841;49.368;20.962;2023-04-12T09:41:18;95047.25;;;7.38;86.36
23339;BME280;11841;49.368;20.962;2023-04-12T09:44:26;95044.56;;;7.45;87.21
23339;BME280;11841;49.368;20.962;2023-04-12T09:47:13;95049.00;;;7.44;86.07
23339;BME280;11841;49.368;20.962;2023-04-12T09:49:58;95040.44;;;7.49;86.05
23339;BME280;11841;49.368;20.962;2023-04-12T09:52:44;95043.69;;;7.51;85.39
23339;BME280;11841;49.368;20.962;2023-04-12T09:55:30;95033.53;;;7.54;84.69
23339;BME280;11841;49.368;20.962;2023-04-12T09:58:18;95046.44;;;7.62;84.59
23339;BME280;11841;49.368;20.962;2023-04-12T10:01:07;95041.75;;;7.64;84.13
23339;BME280;11841;49.368;20.962;2023-04-12T10:03:54;95040.94;;;7.64;83.84
23339;BME280;11841;49.368;20.962;2023-04-12T10:06:40;95034.78;;;7.52;84.47
23339;BME280;11841;49.368;20.962;2023-04-12T10:09:26;95044.94;;;7.48;84.63
23339;BME280;11841;49.368;20.962;2023-04-12T10:12:12;95047.19;;;7.45;84.53
23339;BME280;11841;49.368;20.962;2023-04-12T10:14:59;95045.94;;;7.47;84.63
23339;BME280;11841;49.368;20.962;2023-04-12T10:17:52;95048.53;;;7.54;84.56
23339;BME280;11841;49.368;20.962;2023-04-12T10:20:39;95056.72;;;7.46;84.00
23339;BME280;11841;49.368;20.962;2023-04-12T10:23:26;95056.72;;;7.46;83.91
23339;BME280;11841;49.368;20.962;2023-04-12T10:26:14;95056.66;;;7.52;83.81
23339;BME280;11841;49.368;20.962;2023-04-12T10:29:25;95049.50;;;7.59;83.92
23339;BME280;11841;49.368;20.962;2023-04-12T10:35:07;95054.66;;;7.48;82.90
23339;BME280;11841;49.368;20.962;2023-04-12T10:41:06;95049.50;;;7.59;82.89
23339;BME280;11841;49.368;20.962;2023-04-12T10:43:51;95050.31;;;7.60;82.70
23339;BME280;11841;49.368;20.962;2023-04-12T10:49:22;95045.66;;;7.62;82.50
23339;BME280;11841;49.368;20.962;2023-04-12T10:54:53;95042.38;;;7.66;83.03
23339;BME280;11841;49.368;20.962;2023-04-12T10:57:41;95037.47;;;7.70;82.92
23339;BME280;11841;49.368;20.962;2023-04-12T11:03:33;95031.00;;;7.66;83.54
23339;BME280;11841;49.368;20.962;2023-04-12T11:06:18;95036.28;;;7.66;82.71
23339;BME280;11841;49.368;20.962;2023-04-12T11:09:29;95033.03;;;7.64;82.84
23339;BME280;11841;49.368;20.962;2023-04-12T11:12:25;95027.75;;;7.64;83.35
23339;BME280;11841;49.368;20.962;2023-04-12T11:15:12;95032.25;;;7.63;83.37
23339;BME280;11841;49.368;20.962;2023-04-12T11:17:57;95037.75;;;7.55;83.19
23339;BME280;11841;49.368;20.962;2023-04-12T11:20:45;95040.94;;;7.39;83.54
23339;BME280;11841;49.368;20.962;2023-04-12T11:23:31;95040.38;;;7.30;84.46
23339;BME280;11841;49.368;20.962;2023-04-12T11:26:20;95030.00;;;7.35;84.81
23339;BME280;11841;49.368;20.962;2023-04-12T11:29:06;95030.66;;;7.31;84.69
23339;BME280;11841;49.368;20.962;2023-04-12T11:31:52;95032.84;;;7.34;84.35
23339;BME280;11841;49.368;20.962;2023-04-12T11:34:41;95034.41;;;7.42;84.78
23339;BME280;11841;49.368;20.962;2023-04-12T11:37:26;95027.31;;;7.42;84.43
23339;BME280;11841;49.368;20.962;2023-04-12T11:40:11;95019.19;;;7.44;84.41
23339;BME280;11841;49.368;20.962;2023-04-12T11:42:57;95018.13;;;7.51;85.01
23339;BME280;11841;49.368;20.962;2023-04-12T11:45:42;95023.50;;;7.63;85.55
23339;BME280;11841;49.368;20.962;2023-04-12T11:48:28;95009.81;;;7.79;86.20
23339;BME280;11841;49.368;20.962;2023-04-12T11:51:21;95015.00;;;7.85;84.70
23339;BME280;11841;49.368;20.962;2023-04-12T11:54:09;95010.69;;;7.91;84.65
23339;BME280;11841;49.368;20.962;2023-04-12T11:56:59;95008.94;;;8.03;83.93
23339;BME280;11841;49.368;20.962;2023-04-12T11:59:45;95003.09;;;8.01;82.67
23339;BME280;11841;49.368;20.962;2023-04-12T12:02:32;94997.81;;;8.01;82.26
23339;BME280;11841;49.368;20.962;2023-04-12T12:05:30;94995.72;;;8.09;82.80
23339;BME280;11841;49.368;20.962;2023-04-12T12:08:21;94990.72;;;8.19;81.99
23339;BME280;11841;49.368;20.962;2023-04-12T12:11:08;94984.88;;;8.35;82.84
23339;BME280;11841;49.368;20.962;2023-04-12T12:13:54;94979.03;;;8.51;81.49
23339;BME280;11841;49.368;20.962;2023-04-12T12:16:40;94976.75;;;8.55;79.85
23339;BME280;11841;49.368;20.962;2023-04-12T12:19:30;94970.41;;;8.56;79.92
23339;BME280;11841;49.368;20.962;2023-04-12T12:22:20;94976.81;;;8.67;79.59
23339;BME280;11841;49.368;20.962;2023-04-12T12:25:10;94974.66;;;8.75;79.66
23339;BME280;11841;49.368;20.962;2023-04-12T12:27:56;94974.47;;;8.88;80.10
23339;BME280;11841;49.368;20.962;2023-04-12T12:30:41;94972.22;;;9.03;79.10
23339;BME280;11841;49.368;20.962;2023-04-12T12:33:35;94966.84;;;9.10;77.82
23339;BME280;11841;49.368;20.962;2023-04-12T12:36:32;94958.69;;;9.11;78.55
23339;BME280;11841;49.368;20.962;2023-04-12T12:39:18;94960.94;;;9.26;78.56
23339;BME280;11841;49.368;20.962;2023-04-12T12:42:04;94961.38;;;9.23;76.53
23339;BME280;11841;49.368;20.962;2023-04-12T12:44:52;94960.00;;;9.20;77.22
23339;BME280;11841;49.368;20.962;2023-04-12T12:47:45;94954.81;;;9.25;76.62
23339;BME280;11841;49.368;20.962;2023-04-12T12:50:33;94946.88;;;9.25;75.18
23339;BME280;11841;49.368;20.962;2023-04-12T12:53:19;94945.28;;;9.24;76.05
23339;BME280;11841;49.368;20.962;2023-04-12T12:56:09;94935.28;;;9.26;75.98
23339;BME280;11841;49.368;20.962;2023-04-12T12:58:55;94939.66;;;9.32;75.58
23339;BME280;11841;49.368;20.962;2023-04-12T13:01:41;94932.91;;;9.36;75.73
23339;BME280;11841;49.368;20.962;2023-04-12T13:04:27;94927.63;;;9.48;75.30
23339;BME280;11841;49.368;20.962;2023-04-12T13:07:12;94917.50;;;9.45;72.97
23339;BME280;11841;49.368;20.962;2023-04-12T13:09:58;94917.38;;;9.51;72.94
23339;BME280;11841;49.368;20.962;2023-04-12T13:12:43;94914.28;;;9.66;73.05
23339;BME280;11841;49.368;20.962;2023-04-12T13:15:28;94905.09;;;9.68;72.48
23339;BME280;11841;49.368;20.962;2023-04-12T13:18:14;94903.59;;;9.84;73.33
23339;BME280;11841;49.368;20.962;2023-04-12T13:21:00;94902.97;;;10.05;73.79
23339;BME280;11841;49.368;20.962;2023-04-12T13:23:45;94901.47;;;10.21;71.44
23339;BME280;11841;49.368;20.962;2023-04-12T13:26:31;94891.00;;;10.26;73.17
23339;BME280;11841;49.368;20.962;2023-04-12T13:29:16;94904.63;;;10.46;72.23
23339;BME280;11841;49.368;20.962;2023-04-12T13:32:02;94897.31;;;10.64;71.10
23339;BME280;11841;49.368;20.962;2023-04-12T13:34:47;94892.88;;;10.81;71.57
23339;BME280;11841;49.368;20.962;2023-04-12T13:37:33;94894.34;;;10.89;70.45
23339;BME280;11841;49.368;20.962;2023-04-12T13:40:19;94887.31;;;10.83;69.67
23339;BME280;11841;49.368;20.962;2023-04-12T13:43:04;94887.91;;;10.85;69.51
23339;BME280;11841;49.368;20.962;2023-04-12T13:45:51;94888.38;;;10.82;67.34
23339;BME280;11841;49.368;20.962;2023-04-12T13:48:37;94880.50;;;10.87;67.82
23339;BME280;11841;49.368;20.962;2023-04-12T13:51:23;94885.72;;;10.82;66.92
23339;BME280;11841;49.368;20.962;2023-04-12T13:54:10;94878.78;;;10.81;66.32
23339;BME280;11841;49.368;20.962;2023-04-12T13:56:55;94869.72;;;10.77;67.48
23339;BME280;11841;49.368;20.962;2023-04-12T13:59:41;94874.16;;;10.88;66.67
23339;BME280;11841;49.368;20.962;2023-04-12T14:02:27;94871.50;;;10.88;68.28
23339;BME280;11841;49.368;20.962;2023-04-12T14:05:15;94866.38;;;10.98;66.49
23339;BME280;11841;49.368;20.962;2023-04-12T14:08:00;94868.69;;;10.94;67.70
23339;BME280;11841;49.368;20.962;2023-04-12T14:10:46;94871.56;;;11.21;70.57
23339;BME280;11841;49.368;20.962;2023-04-12T14:13:31;94873.03;;;11.45;69.00
23339;BME280;11841;49.368;20.962;2023-04-12T14:16:16;94874.28;;;11.59;71.46
23339;BME280;11841;49.368;20.962;2023-04-12T14:19:02;94868.59;;;11.67;68.31
23339;BME280;11841;49.368;20.962;2023-04-12T14:21:47;94873.00;;;11.62;69.46
23339;BME280;11841;49.368;20.962;2023-04-12T14:24:33;94865.38;;;11.65;69.14
23339;BME280;11841;49.368;20.962;2023-04-12T14:27:18;94866.03;;;11.72;69.06
23339;BME280;11841;49.368;20.962;2023-04-12T14:30:04;94866.88;;;11.94;69.97
23339;BME280;11841;49.368;20.962;2023-04-12T14:32:51;94876.00;;;12.03;68.94
23339;BME280;11841;49.368;20.962;2023-04-12T14:35:36;94870.63;;;12.20;69.01
23339;BME280;11841;49.368;20.962;2023-04-12T14:38:21;94869.59;;;12.21;68.11
23339;BME280;11841;49.368;20.962;2023-04-12T14:41:07;94874.66;;;12.23;68.56
23339;BME280;11841;49.368;20.962;2023-04-12T14:43:55;94868.72;;;12.15;68.16
23339;BME280;11841;49.368;20.962;2023-04-12T14:46:40;94868.22;;;12.18;68.09
23339;BME280;11841;49.368;20.962;2023-04-12T14:49:26;94861.81;;;12.14;67.77
23339;BME280;11841;49.368;20.962;2023-04-12T14:52:14;94876.56;;;12.05;67.84
23339;BME280;11841;49.368;20.962;2023-04-12T14:54:59;94866.94;;;11.99;67.48
23339;BME280;11841;49.368;20.962;2023-04-12T14:57:45;94864.78;;;11.80;66.27
23339;BME280;11841;49.368;20.962;2023-04-12T15:00:32;94866.69;;;11.84;67.88
23339;BME280;11841;49.368;20.962;2023-04-12T15:03:18;94869.47;;;11.89;66.04
23339;BME280;11841;49.368;20.962;2023-04-12T15:06:05;94868.56;;;11.84;65.09
23339;BME280;11841;49.368;20.962;2023-04-12T15:08:50;94870.59;;;11.60;65.18
23339;BME280;11841;49.368;20.962;2023-04-12T15:11:38;94857.88;;;11.46;65.34